createdAt,value
2018-06-10T00:00:10.797Z,18.35
2018-06-10T00:01:10.740Z,18.41
2018-06-10T00:02:10.724Z,18.44
2018-06-10T00:03:10.682Z,18.37
2018-06-10T00:04:10.646Z,18.37
2018-06-10T00:05:10.622Z,18.33
2018-06-10T00:06:10.563Z,18.21
2018-06-10T00:07:10.531Z,18.23
2018-06-10T00:08:10.522Z,18.27
2018-06-10T00:09:10.476Z,18.18
2018-06-10T00:10:10.453Z,18.25
2018-06-10T00:11:10.388Z,18.27
2018-06-10T00:12:10.363Z,18.27
2018-06-10T00:13:10.309Z,18.29
2018-06-10T00:14:10.272Z,18.23
2018-06-10T00:15:10.259Z,18.25
2018-06-10T00:16:10.241Z,18.27
2018-06-10T00:17:10.164Z,18.25
2018-06-10T00:18:10.140Z,18.25
2018-06-10T00:19:10.086Z,18.25
2018-06-10T00:20:10.205Z,18.23
2018-06-10T00:21:10.026Z,18.32
2018-06-10T00:22:09.980Z,18.18
2018-06-10T00:23:09.946Z,18.33
2018-06-10T00:24:09.899Z,18.27
2018-06-10T00:25:09.884Z,18.18
2018-06-10T00:26:09.849Z,18.21
2018-06-10T00:27:09.812Z,18.21
2018-06-10T00:28:09.779Z,18.25
2018-06-10T00:29:09.740Z,18.20
2018-06-10T00:30:09.713Z,18.27
2018-06-10T00:31:09.653Z,18.23
2018-06-10T00:32:09.620Z,18.25
2018-06-10T00:33:09.582Z,18.23
2018-06-10T00:34:09.531Z,18.23
2018-06-10T00:35:09.535Z,18.23
2018-06-10T00:36:09.449Z,18.25
2018-06-10T00:37:09.415Z,18.29
2018-06-10T00:38:09.384Z,18.35
2018-06-10T00:39:09.373Z,18.37
2018-06-10T00:40:09.298Z,18.37
2018-06-10T00:41:17.721Z,18.39
2018-06-10T00:42:09.252Z,18.25
2018-06-10T00:43:09.187Z,18.35
2018-06-10T00:44:09.199Z,18.32
2018-06-10T00:45:09.144Z,18.32
2018-06-10T00:46:09.093Z,18.33
2018-06-10T00:47:09.050Z,18.35
2018-06-10T00:48:09.013Z,18.37
2018-06-10T00:49:08.981Z,18.37
2018-06-10T00:50:08.977Z,18.36
2018-06-10T00:51:08.921Z,18.44
2018-06-10T00:52:08.881Z,18.47
2018-06-10T00:53:08.833Z,18.41
2018-06-10T00:54:08.817Z,18.57
2018-06-10T00:55:08.763Z,18.52
2018-06-10T00:56:08.753Z,18.50
2018-06-10T00:57:08.682Z,18.54
2018-06-10T00:58:08.652Z,18.51
2018-06-10T00:59:08.620Z,18.57
2018-06-10T01:00:08.607Z,18.52
2018-06-10T01:01:08.530Z,18.51
2018-06-10T01:02:08.512Z,18.48
2018-06-10T01:03:08.469Z,18.54
2018-06-10T01:04:08.448Z,18.52
2018-06-10T01:05:08.409Z,18.54
2018-06-10T01:06:08.377Z,18.50
2018-06-10T01:07:08.318Z,18.50
2018-06-10T01:08:08.280Z,18.57
2018-06-10T01:09:08.321Z,18.57
2018-06-10T01:10:08.230Z,18.65
2018-06-10T01:11:08.225Z,18.58
2018-06-10T01:12:08.139Z,18.63
2018-06-10T01:13:08.090Z,18.48
2018-06-10T01:14:08.062Z,18.54
2018-06-10T01:15:08.017Z,18.55
2018-06-10T01:16:07.999Z,18.52
2018-06-10T01:17:07.960Z,18.55
2018-06-10T01:18:07.922Z,18.60
2018-06-10T01:19:07.879Z,18.47
2018-06-10T01:20:07.846Z,18.54
2018-06-10T01:21:07.840Z,18.50
2018-06-10T01:22:07.757Z,18.55
2018-06-10T01:23:07.730Z,18.58
2018-06-10T01:24:07.690Z,18.51
2018-06-10T01:25:07.676Z,18.52
2018-06-10T01:26:07.644Z,18.52
2018-06-10T01:27:07.578Z,18.51
2018-06-10T01:28:07.535Z,18.55
2018-06-10T01:29:07.506Z,18.50
2018-06-10T01:30:07.490Z,18.55
2018-06-10T01:31:07.453Z,18.52
2018-06-10T01:32:07.417Z,18.54
2018-06-10T01:33:07.362Z,18.54
2018-06-10T01:34:07.324Z,18.52
2018-06-10T01:35:07.283Z,18.50
2018-06-10T01:36:07.245Z,18.45
2018-06-10T01:37:07.236Z,18.47
2018-06-10T01:38:07.203Z,18.39
2018-06-10T01:39:07.152Z,18.42
2018-06-10T01:40:07.136Z,18.41
2018-06-10T01:41:07.070Z,18.41
2018-06-10T01:42:07.099Z,18.48
2018-06-10T01:43:06.993Z,18.41
2018-06-10T01:44:06.961Z,18.41
2018-06-10T01:45:06.935Z,18.39
2018-06-10T01:46:06.882Z,18.39
2018-06-10T01:47:06.869Z,18.39
2018-06-10T01:48:06.837Z,18.39
2018-06-10T01:49:06.765Z,18.37
2018-06-10T01:50:06.748Z,18.42
2018-06-10T01:51:06.714Z,18.35
2018-06-10T01:52:06.672Z,18.41
2018-06-10T01:53:07.632Z,18.39
2018-06-10T01:54:06.605Z,18.44
2018-06-10T01:55:06.547Z,18.41
2018-06-10T01:56:06.542Z,18.36
2018-06-10T01:57:06.508Z,18.45
2018-06-10T01:58:06.480Z,18.48
2018-06-10T01:59:06.416Z,18.47
2018-06-10T02:00:06.366Z,18.54
2018-06-10T02:01:06.339Z,18.51
2018-06-10T02:02:06.298Z,18.52
2018-06-10T02:03:06.309Z,18.62
2018-06-10T02:04:06.255Z,18.57
2018-06-10T02:05:06.201Z,18.51
2018-06-10T02:06:06.160Z,18.58
2018-06-10T02:07:06.111Z,18.44
2018-06-10T02:08:06.080Z,18.48
2018-06-10T02:09:06.061Z,18.51
2018-06-10T02:10:06.004Z,18.51
2018-06-10T02:11:05.984Z,18.54
2018-06-10T02:12:05.944Z,18.55
2018-06-10T02:13:05.905Z,18.51
2018-06-10T02:14:05.889Z,18.55
2018-06-10T02:15:05.826Z,18.54
2018-06-10T02:16:16.300Z,18.51
2018-06-10T02:17:05.743Z,18.52
2018-06-10T02:18:05.698Z,18.47
2018-06-10T02:19:05.695Z,18.55
2018-06-10T02:20:05.620Z,18.55
2018-06-10T02:21:05.593Z,18.52
2018-06-10T02:22:05.565Z,18.52
2018-06-10T02:23:05.538Z,18.52
2018-06-10T02:24:05.494Z,18.57
2018-06-10T02:25:05.474Z,18.52
2018-06-10T02:26:05.403Z,18.52
2018-06-10T02:27:05.371Z,18.55
2018-06-10T02:28:05.340Z,18.52
2018-06-10T02:29:05.316Z,18.47
2018-06-10T02:30:05.287Z,18.37
2018-06-10T02:31:05.219Z,18.39
2018-06-10T02:32:05.196Z,18.48
2018-06-10T02:33:05.160Z,18.44
2018-06-10T02:34:05.125Z,18.41
2018-06-10T02:35:05.123Z,18.51
2018-06-10T02:36:05.047Z,18.42
2018-06-10T02:37:05.011Z,18.41
2018-06-10T02:38:04.977Z,18.37
2018-06-10T02:39:15.272Z,18.44
2018-06-10T02:40:14.813Z,18.42
2018-06-10T02:41:04.853Z,18.39
2018-06-10T02:42:04.829Z,18.47
2018-06-10T02:43:04.794Z,18.47
2018-06-10T02:44:04.765Z,18.42
2018-06-10T02:45:04.710Z,18.37
2018-06-10T02:46:04.696Z,18.41
2018-06-10T02:47:04.632Z,18.41
2018-06-10T02:48:04.599Z,18.42
2018-06-10T02:49:04.625Z,18.41
2018-06-10T02:50:04.542Z,18.44
2018-06-10T02:51:04.523Z,18.44
2018-06-10T02:52:04.460Z,18.36
2018-06-10T02:53:04.424Z,18.41
2018-06-10T02:54:04.396Z,18.30
2018-06-10T02:55:04.362Z,18.32
2018-06-10T02:56:04.341Z,18.35
2018-06-10T02:57:04.278Z,18.29
2018-06-10T02:58:04.260Z,18.25
2018-06-10T02:59:04.202Z,18.33
2018-06-10T03:00:04.155Z,18.37
2018-06-10T03:01:04.139Z,18.35
2018-06-10T03:02:04.137Z,18.37
2018-06-10T03:03:15.321Z,18.37
2018-06-10T03:04:04.001Z,18.32
2018-06-10T03:05:03.974Z,18.25
2018-06-10T03:06:03.976Z,18.30
2018-06-10T03:07:03.908Z,18.35
2018-06-10T03:08:03.862Z,18.30
2018-06-10T03:09:03.837Z,18.32
2018-06-10T03:10:03.794Z,18.35
2018-06-10T03:11:03.782Z,18.30
2018-06-10T03:12:03.733Z,18.29
2018-06-10T03:13:03.770Z,18.30
2018-06-10T03:14:03.681Z,18.29
2018-06-10T03:15:03.626Z,18.33
2018-06-10T03:16:03.612Z,18.30
2018-06-10T03:17:03.551Z,18.30
2018-06-10T03:18:03.501Z,18.36
2018-06-10T03:19:03.454Z,18.33
2018-06-10T03:20:03.423Z,18.35
2018-06-10T03:21:03.449Z,18.21
2018-06-10T03:22:03.351Z,18.30
2018-06-10T03:23:03.338Z,18.29
2018-06-10T03:24:03.299Z,18.26
2018-06-10T03:25:03.256Z,18.29
2018-06-10T03:26:03.266Z,18.20
2018-06-10T03:27:03.173Z,18.26
2018-06-10T03:28:03.155Z,18.32
2018-06-10T03:29:03.093Z,18.29
2018-06-10T03:30:03.067Z,18.32
2018-06-10T03:31:03.037Z,18.36
2018-06-10T03:32:02.998Z,18.36
2018-06-10T03:33:02.974Z,18.29
2018-06-10T03:34:02.920Z,18.27
2018-06-10T03:35:02.882Z,18.26
2018-06-10T03:36:02.863Z,18.32
2018-06-10T03:37:02.809Z,18.32
2018-06-10T03:38:02.775Z,18.32
2018-06-10T03:39:02.746Z,18.35
2018-06-10T03:40:02.717Z,18.27
2018-06-10T03:41:02.643Z,18.32
2018-06-10T03:42:02.625Z,18.29
2018-06-10T03:43:02.593Z,18.30
2018-06-10T03:44:02.561Z,18.29
2018-06-10T03:45:02.547Z,18.35
2018-06-10T03:46:02.478Z,18.25
2018-06-10T03:47:02.450Z,18.29
2018-06-10T03:48:02.399Z,18.23
2018-06-10T03:49:02.381Z,18.32
2018-06-10T03:50:02.339Z,18.27
2018-06-10T03:51:02.291Z,18.18
2018-06-10T03:52:02.265Z,18.14
2018-06-10T03:53:02.239Z,18.12
2018-06-10T03:54:02.179Z,18.18
2018-06-10T03:55:02.168Z,18.14
2018-06-10T03:56:02.117Z,18.08
2018-06-10T03:57:02.082Z,18.18
2018-06-10T03:58:02.023Z,18.14
2018-06-10T03:59:02.032Z,18.17
2018-06-10T04:00:01.968Z,18.25
2018-06-10T04:01:01.926Z,18.26
2018-06-10T04:02:01.890Z,18.25
2018-06-10T04:03:01.830Z,18.32
2018-06-10T04:04:01.816Z,18.32
2018-06-10T04:05:01.794Z,18.36
2018-06-10T04:06:01.744Z,18.37
2018-06-10T04:07:01.704Z,18.37
2018-06-10T04:08:01.685Z,18.48
2018-06-10T04:09:01.630Z,18.37
2018-06-10T04:10:01.613Z,18.45
2018-06-10T04:11:01.565Z,18.39
2018-06-10T04:12:01.544Z,18.35
2018-06-10T04:13:01.476Z,18.41
2018-06-10T04:14:12.901Z,18.39
2018-06-10T04:15:01.423Z,18.42
2018-06-10T04:16:01.382Z,18.50
2018-06-10T04:17:01.332Z,18.48
2018-06-10T04:18:01.294Z,18.50
2018-06-10T04:19:01.264Z,18.45
2018-06-10T04:20:01.238Z,18.51
2018-06-10T04:21:01.174Z,18.52
2018-06-10T04:22:01.164Z,18.52
2018-06-10T04:23:01.123Z,18.58
2018-06-10T04:24:01.093Z,18.48
2018-06-10T04:25:01.035Z,18.54
2018-06-10T04:26:01.000Z,18.57
2018-06-10T04:27:00.970Z,18.66
2018-06-10T04:28:00.939Z,18.69
2018-06-10T04:29:00.917Z,18.65
2018-06-10T04:30:00.925Z,18.67
2018-06-10T04:31:00.805Z,18.60
2018-06-10T04:32:00.813Z,18.65
2018-06-10T04:33:00.750Z,18.76
2018-06-10T04:34:00.727Z,18.75
2018-06-10T04:35:00.672Z,18.70
2018-06-10T04:36:00.640Z,18.75
2018-06-10T04:37:00.596Z,18.73
2018-06-10T04:38:00.567Z,18.76
2018-06-10T04:39:00.559Z,18.84
2018-06-10T04:40:00.513Z,18.85
2018-06-10T04:41:00.461Z,18.80
2018-06-10T04:42:00.418Z,18.85
2018-06-10T04:43:00.377Z,18.88
2018-06-10T04:44:00.353Z,18.90
2018-06-10T04:45:00.296Z,18.98
2018-06-10T04:46:00.296Z,18.95
2018-06-10T04:47:00.258Z,18.94
2018-06-10T04:48:00.206Z,19.11
2018-06-10T04:49:00.183Z,19.07
2018-06-10T04:50:00.123Z,19.13
2018-06-10T04:51:00.083Z,19.26
2018-06-10T04:52:00.065Z,19.25
2018-06-10T04:53:00.056Z,19.11
2018-06-10T04:54:00.019Z,19.23
2018-06-10T04:54:59.947Z,19.14
2018-06-10T04:55:59.916Z,19.25
2018-06-10T04:56:59.865Z,19.14
2018-06-10T04:57:59.827Z,19.16
2018-06-10T04:58:59.832Z,19.21
2018-06-10T04:59:59.763Z,19.28
2018-06-10T05:00:59.757Z,19.33
2018-06-10T05:02:09.886Z,19.51
2018-06-10T05:02:59.649Z,19.51
2018-06-10T05:03:59.662Z,19.55
2018-06-10T05:04:59.571Z,19.51
2018-06-10T05:05:59.535Z,19.55
2018-06-10T05:06:59.502Z,19.50
2018-06-10T05:07:59.491Z,19.54
2018-06-10T05:08:59.420Z,19.51
2018-06-10T05:09:59.405Z,19.54
2018-06-10T05:10:59.352Z,19.63
2018-06-10T05:11:59.342Z,19.63
2018-06-10T05:12:59.318Z,19.71
2018-06-10T05:13:59.282Z,19.58
2018-06-10T05:14:59.228Z,19.68
2018-06-10T05:15:59.202Z,19.66
2018-06-10T05:16:59.138Z,19.65
2018-06-10T05:17:59.147Z,19.50
2018-06-10T05:18:59.084Z,19.48
2018-06-10T05:19:59.105Z,19.33
2018-06-10T05:20:58.996Z,19.50
2018-06-10T05:21:58.957Z,19.44
2018-06-10T05:22:58.965Z,19.41
2018-06-10T05:23:58.905Z,19.46
2018-06-10T05:25:09.920Z,19.40
2018-06-10T05:25:58.808Z,19.40
2018-06-10T05:26:58.769Z,19.36
2018-06-10T05:27:58.774Z,19.43
2018-06-10T05:28:58.738Z,19.54
2018-06-10T05:29:58.665Z,19.46
2018-06-10T05:30:58.627Z,19.40
2018-06-10T05:31:58.635Z,19.40
2018-06-10T05:32:58.577Z,19.50
2018-06-10T05:33:58.532Z,19.39
2018-06-10T05:34:58.502Z,19.48
2018-06-10T05:35:58.492Z,19.50
2018-06-10T05:36:58.417Z,19.71
2018-06-10T05:37:58.417Z,19.74
2018-06-10T05:38:58.340Z,19.86
2018-06-10T05:39:58.336Z,19.91
2018-06-10T05:40:58.289Z,19.87
2018-06-10T05:41:58.277Z,20.01
2018-06-10T05:42:58.259Z,20.06
2018-06-10T05:43:58.161Z,20.05
2018-06-10T05:44:58.161Z,20.03
2018-06-10T05:45:58.116Z,20.05
2018-06-10T05:46:58.076Z,20.06
2018-06-10T05:47:58.064Z,20.03
2018-06-10T05:49:08.442Z,20.17
2018-06-10T05:49:57.941Z,20.23
2018-06-10T05:50:57.926Z,20.35
2018-06-10T05:51:57.881Z,20.29
2018-06-10T05:52:57.877Z,20.35
2018-06-10T05:53:57.813Z,20.38
2018-06-10T05:54:57.772Z,20.57
2018-06-10T05:55:57.757Z,20.58
2018-06-10T05:56:57.739Z,20.69
2018-06-10T05:57:57.677Z,20.69
2018-06-10T05:58:57.654Z,20.76
2018-06-10T05:59:57.616Z,20.85
2018-06-10T06:00:57.564Z,20.84
2018-06-10T06:01:57.569Z,20.97
2018-06-10T06:02:57.496Z,20.98
2018-06-10T06:03:57.483Z,21.06
2018-06-10T06:04:57.427Z,20.97
2018-06-10T06:05:57.418Z,20.94
2018-06-10T06:06:57.385Z,20.95
2018-06-10T06:07:57.319Z,20.94
2018-06-10T06:08:57.292Z,20.82
2018-06-10T06:09:57.254Z,20.92
2018-06-10T06:10:57.219Z,20.97
2018-06-10T06:11:57.204Z,21.01
2018-06-10T06:12:57.156Z,21.10
2018-06-10T06:13:57.117Z,21.21
2018-06-10T06:14:57.076Z,21.35
2018-06-10T06:15:57.047Z,21.32
2018-06-10T06:16:57.080Z,21.37
2018-06-10T06:17:56.977Z,21.28
2018-06-10T06:18:56.945Z,21.22
2018-06-10T06:19:56.910Z,21.25
2018-06-10T06:20:56.857Z,21.17
2018-06-10T06:21:56.860Z,21.14
2018-06-10T06:22:56.809Z,21.06
2018-06-10T06:23:56.781Z,21.09
2018-06-10T06:24:56.733Z,21.10
2018-06-10T06:25:56.695Z,21.24
2018-06-10T06:26:56.705Z,21.19
2018-06-10T06:27:56.645Z,21.17
2018-06-10T06:28:56.596Z,21.37
2018-06-10T06:29:56.563Z,21.35
2018-06-10T06:30:56.562Z,21.37
2018-06-10T06:31:56.522Z,21.34
2018-06-10T06:32:56.444Z,21.34
2018-06-10T06:33:56.423Z,21.25
2018-06-10T06:34:56.389Z,21.35
2018-06-10T06:35:56.377Z,21.37
2018-06-10T06:36:56.345Z,21.34
2018-06-10T06:37:56.302Z,21.35
2018-06-10T06:38:56.268Z,21.29
2018-06-10T06:39:56.243Z,21.47
2018-06-10T06:40:56.247Z,21.49
2018-06-10T06:41:56.175Z,21.46
2018-06-10T06:42:56.115Z,21.50
2018-06-10T06:43:56.119Z,21.40
2018-06-10T06:44:56.045Z,21.44
2018-06-10T06:45:56.025Z,21.52
2018-06-10T06:46:55.986Z,21.53
2018-06-10T06:47:55.983Z,21.52
2018-06-10T06:48:55.966Z,21.49
2018-06-10T06:49:55.879Z,21.52
2018-06-10T06:50:55.877Z,21.47
2018-06-10T06:51:55.812Z,21.62
2018-06-10T06:52:55.810Z,21.61
2018-06-10T06:53:55.770Z,21.59
2018-06-10T06:54:55.700Z,21.58
2018-06-10T06:55:55.697Z,21.49
2018-06-10T06:56:55.651Z,21.44
2018-06-10T06:57:55.604Z,21.43
2018-06-10T06:58:55.558Z,21.58
2018-06-10T06:59:55.540Z,21.46
2018-06-10T07:00:55.578Z,21.54
2018-06-10T07:01:55.478Z,21.46
2018-06-10T07:02:55.471Z,21.46
2018-06-10T07:03:55.436Z,21.52
2018-06-10T07:04:55.351Z,21.49
2018-06-10T07:05:55.343Z,21.43
2018-06-10T07:06:55.315Z,21.40
2018-06-10T07:07:55.277Z,21.40
2018-06-10T07:08:55.220Z,21.43
2018-06-10T07:09:55.189Z,21.38
2018-06-10T07:10:55.177Z,21.50
2018-06-10T07:11:55.139Z,21.38
2018-06-10T07:12:55.116Z,21.42
2018-06-10T07:13:55.116Z,21.31
2018-06-10T07:14:55.017Z,21.32
2018-06-10T07:15:55.014Z,21.47
2018-06-10T07:16:54.944Z,21.53
2018-06-10T07:17:54.922Z,21.49
2018-06-10T07:18:54.878Z,21.50
2018-06-10T07:19:54.864Z,21.62
2018-06-10T07:20:54.833Z,21.72
2018-06-10T07:21:54.773Z,21.82
2018-06-10T07:22:54.738Z,21.72
2018-06-10T07:23:54.711Z,21.72
2018-06-10T07:24:54.685Z,21.64
2018-06-10T07:25:54.706Z,21.67
2018-06-10T07:26:54.598Z,21.74
2018-06-10T07:27:54.595Z,21.72
2018-06-10T07:28:54.533Z,21.75
2018-06-10T07:29:54.489Z,21.67
2018-06-10T07:30:54.470Z,21.68
2018-06-10T07:31:54.471Z,21.65
2018-06-10T07:32:54.397Z,21.65
2018-06-10T07:33:54.375Z,21.59
2018-06-10T07:34:54.347Z,21.58
2018-06-10T07:35:54.300Z,21.72
2018-06-10T07:36:54.278Z,21.72
2018-06-10T07:37:54.225Z,21.72
2018-06-10T07:38:54.191Z,21.75
2018-06-10T07:39:54.185Z,21.74
2018-06-10T07:40:54.138Z,21.75
2018-06-10T07:41:54.151Z,21.77
2018-06-10T07:42:54.065Z,21.75
2018-06-10T07:43:54.049Z,21.77
2018-06-10T07:44:53.984Z,21.69
2018-06-10T07:45:53.993Z,21.68
2018-06-10T07:46:53.977Z,21.75
2018-06-10T07:47:53.892Z,21.80
2018-06-10T07:48:53.858Z,21.82
2018-06-10T07:49:53.804Z,21.94
2018-06-10T07:50:53.777Z,21.92
2018-06-10T07:51:53.744Z,21.84
2018-06-10T07:52:53.739Z,22.00
2018-06-10T07:53:53.693Z,21.99
2018-06-10T07:54:53.649Z,21.98
2018-06-10T07:55:53.606Z,21.91
2018-06-10T07:56:53.570Z,22.06
2018-06-10T07:57:53.551Z,21.92
2018-06-10T07:58:53.495Z,21.98
2018-06-10T07:59:53.492Z,21.91
2018-06-10T08:00:53.442Z,22.02
2018-06-10T08:01:53.395Z,21.92
2018-06-10T08:02:53.392Z,22.07
2018-06-10T08:03:53.336Z,22.00
2018-06-10T08:04:53.304Z,21.94
2018-06-10T08:05:53.269Z,21.94
2018-06-10T08:06:53.254Z,22.02
2018-06-10T08:07:53.204Z,22.17
2018-06-10T08:08:53.181Z,22.18
2018-06-10T08:09:53.133Z,22.15
2018-06-10T08:10:53.102Z,22.14
2018-06-10T08:11:53.107Z,22.27
2018-06-10T08:12:53.044Z,22.18
2018-06-10T08:13:53.037Z,22.27
2018-06-10T08:14:52.980Z,22.37
2018-06-10T08:15:52.923Z,22.52
2018-06-10T08:16:52.890Z,22.62
2018-06-10T08:17:52.889Z,22.80
2018-06-10T08:18:52.860Z,22.75
2018-06-10T08:19:52.797Z,22.82
2018-06-10T08:20:52.752Z,22.97
2018-06-10T08:21:52.723Z,23.02
2018-06-10T08:22:52.686Z,23.09
2018-06-10T08:23:52.695Z,23.22
2018-06-10T08:24:52.631Z,23.38
2018-06-10T08:25:52.589Z,23.46
2018-06-10T08:26:52.555Z,23.53
2018-06-10T08:27:52.533Z,23.60
2018-06-10T08:28:52.488Z,23.73
2018-06-10T08:29:52.489Z,23.75
2018-06-10T08:30:52.419Z,23.91
2018-06-10T08:31:52.406Z,23.95
2018-06-10T08:32:52.354Z,24.10
2018-06-10T08:33:52.314Z,24.13
2018-06-10T08:34:52.333Z,24.12
2018-06-10T08:35:52.257Z,24.12
2018-06-10T08:36:52.232Z,24.20
2018-06-10T08:37:52.206Z,24.35
2018-06-10T08:38:52.184Z,24.64
2018-06-10T08:39:52.166Z,24.67
2018-06-10T08:40:52.089Z,24.65
2018-06-10T08:41:52.061Z,24.50
2018-06-10T08:42:52.020Z,24.45
2018-06-10T08:43:52.048Z,24.35
2018-06-10T08:44:51.975Z,24.50
2018-06-10T08:45:51.978Z,24.45
2018-06-10T08:46:51.906Z,24.46
2018-06-10T08:47:51.865Z,24.49
2018-06-10T08:48:51.845Z,24.52
2018-06-10T08:49:51.804Z,24.65
2018-06-10T08:50:51.827Z,24.91
2018-06-10T08:51:51.736Z,25.18
2018-06-10T08:52:51.701Z,25.39
2018-06-10T08:53:51.676Z,25.43
2018-06-10T08:54:51.665Z,25.38
2018-06-10T08:55:51.645Z,25.27
2018-06-10T08:56:51.589Z,25.32
2018-06-10T08:57:51.553Z,25.35
2018-06-10T08:58:52.246Z,25.35
2018-06-10T08:59:51.694Z,25.21
2018-06-10T09:00:51.504Z,25.09
2018-06-10T09:01:51.431Z,24.80
2018-06-10T09:02:51.442Z,24.71
2018-06-10T09:03:51.361Z,24.84
2018-06-10T09:04:51.353Z,24.76
2018-06-10T09:05:51.303Z,25.02
2018-06-10T09:06:51.294Z,25.45
2018-06-10T09:07:51.234Z,25.35
2018-06-10T09:08:51.274Z,25.76
2018-06-10T09:09:51.185Z,25.83
2018-06-10T09:10:51.162Z,25.65
2018-06-10T09:11:51.147Z,25.35
2018-06-10T09:12:51.092Z,25.14
2018-06-10T09:13:51.081Z,25.20
2018-06-10T09:14:51.032Z,25.03
2018-06-10T09:15:51.492Z,25.00
2018-06-10T09:16:50.981Z,25.14
2018-06-10T09:17:50.953Z,25.13
2018-06-10T09:18:50.898Z,25.35
2018-06-10T09:19:59.833Z,25.77
2018-06-10T09:20:50.835Z,25.98
2018-06-10T09:21:50.795Z,26.13
2018-06-10T09:22:51.057Z,25.98
2018-06-10T09:23:50.834Z,26.29
2018-06-10T09:24:50.693Z,26.47
2018-06-10T09:25:50.677Z,26.30
2018-06-10T09:26:50.664Z,26.07
2018-06-10T09:27:50.659Z,26.09
2018-06-10T09:28:50.657Z,26.28
2018-06-10T09:29:50.562Z,26.40
2018-06-10T09:30:50.521Z,26.43
2018-06-10T09:31:50.487Z,26.47
2018-06-10T09:32:50.477Z,26.54
2018-06-10T09:33:50.439Z,26.06
2018-06-10T09:34:50.412Z,26.10
2018-06-10T09:35:50.369Z,26.10
2018-06-10T09:36:50.381Z,26.37
2018-06-10T09:37:50.332Z,26.54
2018-06-10T09:38:50.282Z,26.63
2018-06-10T09:39:50.260Z,26.57
2018-06-10T09:40:50.229Z,26.77
2018-06-10T09:41:50.203Z,26.87
2018-06-10T09:42:50.208Z,27.04
2018-06-10T09:44:01.455Z,27.31
2018-06-10T09:44:50.103Z,27.06
2018-06-10T09:45:50.089Z,26.89
2018-06-10T09:46:50.160Z,26.58
2018-06-10T09:47:51.542Z,26.23
2018-06-10T09:48:50.030Z,25.92
2018-06-10T09:49:50.008Z,25.73
2018-06-10T09:50:49.952Z,25.43
2018-06-10T09:51:49.923Z,25.35
2018-06-10T09:52:49.863Z,25.14
2018-06-10T09:53:49.869Z,25.08
2018-06-10T09:54:49.794Z,24.99
2018-06-10T09:55:49.790Z,24.96
2018-06-10T09:56:49.784Z,25.05
2018-06-10T09:57:49.713Z,25.25
2018-06-10T09:58:49.684Z,25.38
2018-06-10T09:59:49.701Z,25.33
2018-06-10T10:00:49.613Z,25.32
2018-06-10T10:01:49.600Z,25.25
2018-06-10T10:02:49.615Z,25.14
2018-06-10T10:03:49.540Z,25.03
2018-06-10T10:04:49.536Z,24.96
2018-06-10T10:05:49.463Z,25.24
2018-06-10T10:06:49.440Z,25.36
2018-06-10T10:07:49.425Z,25.46
2018-06-10T10:08:49.401Z,25.65
2018-06-10T10:09:49.390Z,25.67
2018-06-10T10:10:49.346Z,25.73
2018-06-10T10:11:49.274Z,25.82
2018-06-10T10:12:49.249Z,25.79
2018-06-10T10:13:49.221Z,25.80
2018-06-10T10:14:49.237Z,25.79
2018-06-10T10:15:49.183Z,25.67
2018-06-10T10:16:49.135Z,25.55
2018-06-10T10:17:49.087Z,25.18
2018-06-10T10:18:49.079Z,25.24
2018-06-10T10:19:49.029Z,25.33
2018-06-10T10:20:49.046Z,25.36
2018-06-10T10:21:48.993Z,25.20
2018-06-10T10:22:48.966Z,25.14
2018-06-10T10:23:48.899Z,25.13
2018-06-10T10:24:48.877Z,25.20
2018-06-10T10:25:48.861Z,25.33
2018-06-10T10:26:48.800Z,25.47
2018-06-10T10:27:48.779Z,25.58
2018-06-10T10:28:48.746Z,25.62
2018-06-10T10:29:48.730Z,25.45
2018-06-10T10:30:48.717Z,25.58
2018-06-10T10:31:48.663Z,25.50
2018-06-10T10:32:48.627Z,25.51
2018-06-10T10:33:48.579Z,25.64
2018-06-10T10:34:48.582Z,25.72
2018-06-10T10:35:48.574Z,25.72
2018-06-10T10:36:48.558Z,25.65
2018-06-10T10:37:48.450Z,25.58
2018-06-10T10:38:48.458Z,25.60
2018-06-10T10:39:48.395Z,25.79
2018-06-10T10:40:48.356Z,26.10
2018-06-10T10:41:48.358Z,26.15
2018-06-10T10:42:48.306Z,25.98
2018-06-10T10:43:48.260Z,25.94
2018-06-10T10:44:48.251Z,25.82
2018-06-10T10:45:48.247Z,25.76
2018-06-10T10:46:49.841Z,25.83
2018-06-10T10:47:48.147Z,25.92
2018-06-10T10:48:48.171Z,25.85
2018-06-10T10:49:48.079Z,25.99
2018-06-10T10:50:48.082Z,25.91
2018-06-10T10:51:48.018Z,25.77
2018-06-10T10:52:48.020Z,25.73
2018-06-10T10:53:47.968Z,25.76
2018-06-10T10:54:47.941Z,25.99
2018-06-10T10:55:47.893Z,26.33
2018-06-10T10:56:47.890Z,26.28
2018-06-10T10:57:47.882Z,26.44
2018-06-10T10:58:47.818Z,26.37
2018-06-10T10:59:47.781Z,26.52
2018-06-10T11:00:47.949Z,26.37
2018-06-10T11:01:47.767Z,26.05
2018-06-10T11:02:47.731Z,25.82
2018-06-10T11:03:47.675Z,25.58
2018-06-10T11:04:47.653Z,25.60
2018-06-10T11:05:47.585Z,25.64
2018-06-10T11:06:47.566Z,25.67
2018-06-10T11:07:47.562Z,25.69
2018-06-10T11:08:48.256Z,25.82
2018-06-10T11:09:47.468Z,25.82
2018-06-10T11:10:47.440Z,25.94
2018-06-10T11:11:47.425Z,25.90
2018-06-10T11:12:47.378Z,25.91
2018-06-10T11:13:47.369Z,26.01
2018-06-10T11:14:47.394Z,26.09
2018-06-10T11:15:47.295Z,26.07
2018-06-10T11:16:47.248Z,26.07
2018-06-10T11:17:47.213Z,26.09
2018-06-10T11:18:57.164Z,26.26
2018-06-10T11:19:48.046Z,26.52
2018-06-10T11:20:47.151Z,26.88
2018-06-10T11:21:47.077Z,27.29
2018-06-10T11:22:47.055Z,27.41
2018-06-10T11:23:47.208Z,27.67
2018-06-10T11:24:47.042Z,27.67
2018-06-10T11:25:47.028Z,27.75
2018-06-10T11:26:46.962Z,27.36
2018-06-10T11:27:46.897Z,27.51
2018-06-10T11:28:46.868Z,27.54
2018-06-10T11:29:46.880Z,27.70
2018-06-10T11:30:46.844Z,27.77
2018-06-10T11:31:46.806Z,27.74
2018-06-10T11:32:46.813Z,27.69
2018-06-10T11:33:46.734Z,27.59
2018-06-10T11:34:46.740Z,27.47
2018-06-10T11:35:46.692Z,27.65
2018-06-10T11:36:46.691Z,27.66
2018-06-10T11:37:46.647Z,27.60
2018-06-10T11:38:46.625Z,27.81
2018-06-10T11:39:46.609Z,27.94
2018-06-10T11:40:46.561Z,27.97
2018-06-10T11:42:00.121Z,27.87
2018-06-10T11:42:48.292Z,27.81
2018-06-10T11:43:46.517Z,27.60
2018-06-10T11:44:46.426Z,27.36
2018-06-10T11:45:46.437Z,26.99
2018-06-10T11:46:46.462Z,27.25
2018-06-10T11:47:46.714Z,27.44
2018-06-10T11:48:46.340Z,27.41
2018-06-10T11:49:46.298Z,27.32
2018-06-10T11:50:46.310Z,27.03
2018-06-10T11:51:46.238Z,26.92
2018-06-10T11:52:46.220Z,26.92
2018-06-10T11:53:46.220Z,26.82
2018-06-10T11:54:46.165Z,26.51
2018-06-10T11:55:46.162Z,26.35
2018-06-10T11:56:46.123Z,26.58
2018-06-10T11:57:46.076Z,26.87
2018-06-10T11:58:46.041Z,27.12
2018-06-10T11:59:46.030Z,27.22
2018-06-10T12:00:46.002Z,27.24
2018-06-10T12:01:54.873Z,27.46
2018-06-10T12:02:45.916Z,27.49
2018-06-10T12:03:45.974Z,27.74
2018-06-10T12:04:45.900Z,28.04
2018-06-10T12:05:45.872Z,28.25
2018-06-10T12:06:45.837Z,28.29
2018-06-10T12:07:45.783Z,27.99
2018-06-10T12:08:45.751Z,28.12
2018-06-10T12:09:45.730Z,28.17
2018-06-10T12:10:45.784Z,28.15
2018-06-10T12:11:45.700Z,28.02
2018-06-10T12:12:45.649Z,27.99
2018-06-10T12:13:45.658Z,27.49
2018-06-10T12:14:45.631Z,27.18
2018-06-10T12:15:45.565Z,27.12
2018-06-10T12:16:45.595Z,26.91
2018-06-10T12:17:45.537Z,26.95
2018-06-10T12:18:45.497Z,26.89
2018-06-10T12:19:45.454Z,26.87
2018-06-10T12:20:45.466Z,26.67
2018-06-10T12:21:45.397Z,26.69
2018-06-10T12:22:45.451Z,26.77
2018-06-10T12:23:45.336Z,26.85
2018-06-10T12:24:45.338Z,27.04
2018-06-10T12:25:45.311Z,27.06
2018-06-10T12:26:45.250Z,26.99
2018-06-10T12:27:45.290Z,26.85
2018-06-10T12:28:53.273Z,26.75
2018-06-10T12:29:45.194Z,26.58
2018-06-10T12:30:45.134Z,26.55
2018-06-10T12:31:45.164Z,26.72
2018-06-10T12:32:45.115Z,26.58
2018-06-10T12:33:45.188Z,26.58
2018-06-10T12:34:45.024Z,26.75
2018-06-10T12:35:45.021Z,26.88
2018-06-10T12:36:44.958Z,26.92
2018-06-10T12:37:44.949Z,27.00
2018-06-10T12:38:44.928Z,26.87
2018-06-10T12:39:44.891Z,26.89
2018-06-10T12:40:44.838Z,26.88
2018-06-10T12:41:44.826Z,26.81
2018-06-10T12:42:44.795Z,26.88
2018-06-10T12:43:44.765Z,26.97
2018-06-10T12:44:44.749Z,26.94
2018-06-10T12:45:44.675Z,27.13
2018-06-10T12:46:44.639Z,27.13
2018-06-10T12:47:44.679Z,27.03
2018-06-10T12:48:44.644Z,27.13
2018-06-10T12:49:44.570Z,27.21
2018-06-10T12:50:44.691Z,27.39
2018-06-10T12:51:55.531Z,27.41